Time;durP1;ratioP1;P1;durP2;ratioP2;P2;SDS_P1;SDS_P2;PMS_P1;PMS_P2;Temp;Humidity;BMP_temperature;BMP_pressure;BME280_temperature;BME280_humidity;BME280_pressure;Samples;Min_cycle;Max_cycle;Signal;HPM_P1;HPM_P2
2023/03/14 00:01:10;;;;;;;2.20;1.70;;;10.50;1.00;;;;;;8359235;28;20217;-63
2023/03/14 00:05:12;;;;;;;4.27;2.10;;;10.50;99.90;;;;;;8361545;28;20276;-63
2023/03/14 00:09:13;;;;;;;4.93;2.57;;;10.50;14.30;;;;;;8359974;28;20204;-63
2023/03/14 00:13:14;;;;;;;4.93;2.73;;;10.40;99.90;;;;;;8360552;28;20221;-63
2023/03/14 00:17:15;;;;;;;5.10;2.30;;;10.50;1.00;;;;;;8360767;28;20699;-63
2023/03/14 00:21:16;;;;;;;4.73;2.83;;;10.40;99.90;;;;;;8357926;28;20212;-64
2023/03/14 00:25:16;;;;;;;4.23;2.77;;;10.40;1.00;;;;;;8360540;28;20228;-64
2023/03/14 00:29:17;;;;;;;3.70;2.30;;;10.30;99.90;;;;;;8357368;28;20221;-62
2023/03/14 00:33:18;;;;;;;3.87;3.27;;;10.20;99.90;;;;;;8359577;28;20232;-64
2023/03/14 00:37:19;;;;;;;3.67;3.00;;;10.20;99.90;;;;;;8354708;28;20209;-64
2023/03/14 00:41:22;;;;;;;4.70;3.17;;;10.20;99.90;;;;;;8363059;28;20231;-64
2023/03/14 00:45:23;;;;;;;4.40;3.13;;;10.10;96.80;;;;;;8360900;28;20193;-64
2023/03/14 00:49:24;;;;;;;4.13;2.90;;;10.10;13.60;;;;;;8362935;28;20208;-64
2023/03/14 00:53:25;;;;;;;3.43;2.70;;;10.10;99.90;;;;;;8365510;28;20218;-64
2023/03/14 00:57:26;;;;;;;5.13;2.73;;;10.00;99.90;;;;;;8372242;28;20688;-65
2023/03/14 01:01:27;;;;;;;4.57;2.93;;;10.00;99.90;;;;;;8362894;28;20191;-64
2023/03/14 01:05:28;;;;;;;4.73;2.97;;;10.00;1.00;;;;;;8361851;28;20197;-64
2023/03/14 01:09:29;;;;;;;5.00;2.87;;;9.90;1.00;;;;;;8375333;28;20203;-64
2023/03/14 01:13:30;;;;;;;4.33;3.20;;;9.90;99.90;;;;;;8363745;28;20217;-65
2023/03/14 01:17:31;;;;;;;5.23;3.63;;;9.90;99.90;;;;;;8366955;28;20200;-64
2023/03/14 01:21:34;;;;;;;6.57;3.70;;;9.80;99.90;;;;;;8378413;28;20189;-63
2023/03/14 01:25:41;;;;;;;6.10;3.23;;;9.60;99.90;;;;;;8361940;28;20285;-63
2023/03/14 01:29:42;;;;;;;5.07;3.07;;;9.50;99.90;;;;;;8366396;28;20278;-63
2023/03/14 01:33:43;;;;;;;4.83;3.03;;;9.40;99.90;;;;;;8362365;28;20213;-64
2023/03/14 01:37:44;;;;;;;4.03;2.80;;;9.30;99.90;;;;;;8361617;28;20238;-63
2023/03/14 01:41:44;;;;;;;5.27;2.83;;;9.20;99.90;;;;;;8368493;28;20195;-63
2023/03/14 01:46:04;;;;;;;4.63;3.17;;;9.20;99.90;;;;;;8364327;28;20207;-63
2023/03/14 01:50:10;;;;;;;5.13;3.23;;;9.10;99.90;;;;;;8357337;28;20198;-62
2023/03/14 01:54:17;;;;;;;4.63;3.17;;;9.00;99.90;;;;;;8362735;28;20215;-65
2023/03/14 01:58:19;;;;;;;3.77;3.00;;;8.90;99.90;;;;;;8368674;28;20191;-64
2023/03/14 02:02:21;;;;;;;4.93;2.97;;;8.70;99.90;;;;;;8363952;28;20206;-63
2023/03/14 02:06:29;;;;;;;5.60;3.27;;;8.70;99.90;;;;;;8363431;28;20190;-64
2023/03/14 02:10:41;;;;;;;4.97;3.43;;;8.60;99.90;;;;;;8364258;28;20202;-64
2023/03/14 02:14:47;;;;;;;4.73;2.43;;;8.60;99.90;;;;;;8362178;28;20210;-63
2023/03/14 02:18:48;;;;;;;3.10;2.47;;;8.60;99.90;;;;;;8359628;28;20438;-63
2023/03/14 02:22:49;;;;;;;3.33;2.37;;;8.70;99.90;;;;;;8363522;28;20201;-64
2023/03/14 02:27:07;;;;;;;3.00;2.23;;;8.70;99.90;;;;;;8360166;28;20212;-63
2023/03/14 02:31:08;;;;;;;2.47;2.27;;;8.80;99.90;;;;;;8360149;28;20193;-63
2023/03/14 02:35:16;;;;;;;4.43;2.23;;;8.90;99.90;;;;;;8363793;28;20226;-63
2023/03/14 02:39:36;;;;;;;3.33;2.10;;;8.90;99.90;;;;;;8368917;28;20198;-64
2023/03/14 02:43:37;;;;;;;3.23;1.90;;;8.90;99.90;;;;;;8358610;28;20199;-63
2023/03/14 02:47:43;;;;;;;3.73;1.80;;;8.90;99.90;;;;;;8377489;28;20701;-63
2023/03/14 02:51:45;;;;;;;2.70;2.00;;;8.90;99.90;;;;;;8364375;28;20205;-63
2023/03/14 02:55:50;;;;;;;1.90;1.70;;;8.70;99.90;;;;;;8363899;28;20241;-64
2023/03/14 02:59:50;;;;;;;2.47;1.70;;;8.60;99.90;;;;;;8360824;28;20224;-64
2023/03/14 03:03:51;;;;;;;2.70;1.70;;;8.50;99.90;;;;;;8360190;28;20193;-63
2023/03/14 03:07:52;;;;;;;2.00;1.43;;;8.40;99.90;;;;;;8360643;28;20202;-62
2023/03/14 03:11:53;;;;;;;2.83;1.67;;;8.30;99.90;;;;;;8361445;28;20224;-63
2023/03/14 03:15:53;;;;;;;2.03;1.50;;;8.10;99.90;;;;;;8357353;28;20210;-63
2023/03/14 03:19:54;;;;;;;2.73;1.60;;;8.00;99.90;;;;;;8360109;28;20192;-62
2023/03/14 03:23:55;;;;;;;2.20;1.70;;;7.90;99.90;;;;;;8359174;28;20299;-64
2023/03/14 03:27:56;;;;;;;2.53;1.87;;;7.80;99.90;;;;;;8364150;28;20581;-62
2023/03/14 03:31:57;;;;;;;2.63;1.70;;;7.60;99.90;;;;;;8361462;28;20193;-63
2023/03/14 03:35:58;;;;;;;3.00;1.60;;;7.50;99.90;;;;;;8359781;28;20220;-64
2023/03/14 03:40:00;;;;;;;2.70;1.87;;;7.40;99.90;;;;;;8362308;28;20186;-63
2023/03/14 03:44:01;;;;;;;2.77;1.93;;;7.40;99.90;;;;;;8357670;28;20201;-63
2023/03/14 03:48:01;;;;;;;2.97;2.17;;;7.30;99.90;;;;;;8361695;28;20223;-63
2023/03/14 03:52:02;;;;;;;3.53;2.33;;;7.20;99.90;;;;;;8356360;28;20229;-63
2023/03/14 03:56:04;;;;;;;4.60;2.53;;;7.20;99.90;;;;;;8363031;28;20201;-62
2023/03/14 04:00:05;;;;;;;4.33;2.00;;;7.20;99.90;;;;;;8359579;28;20193;-63
2023/03/14 04:04:06;;;;;;;2.37;1.80;;;7.10;99.90;;;;;;8359064;28;20271;-63
2023/03/14 04:08:07;;;;;;;3.43;2.00;;;7.00;99.90;;;;;;8361997;28;20193;-63
2023/03/14 04:12:08;;;;;;;2.73;1.87;;;6.90;99.90;;;;;;8362506;28;20189;-63
2023/03/14 04:16:16;;;;;;;2.63;1.50;;;6.80;99.90;;;;;;8360919;28;20316;-62
2023/03/14 04:20:17;;;;;;;2.30;1.60;;;6.60;99.90;;;;;;8363345;28;20211;-62
2023/03/14 04:24:18;;;;;;;2.67;1.80;;;6.60;99.90;;;;;;8369182;28;20194;-63
2023/03/14 04:28:19;;;;;;;2.20;1.80;;;6.60;99.90;;;;;;8366238;28;20253;-64
2023/03/14 04:32:20;;;;;;;2.43;2.23;;;6.60;99.90;;;;;;8366471;28;20227;-62
2023/03/14 04:36:21;;;;;;;2.07;1.87;;;6.50;99.90;;;;;;8367241;28;20204;-63
2023/03/14 04:40:21;;;;;;;2.87;1.60;;;6.30;99.90;;;;;;8364369;28;20194;-64
2023/03/14 04:44:22;;;;;;;15.70;6.97;;;6.20;99.90;;;;;;8363636;28;20216;-63
2023/03/14 04:48:24;;;;;;;16.13;8.23;;;6.10;99.90;;;;;;8368673;28;20188;-62
2023/03/14 04:52:26;;;;;;;2.37;1.83;;;6.10;99.90;;;;;;8362391;28;20194;-63
2023/03/14 04:56:27;;;;;;;3.83;3.00;;;6.00;99.90;;;;;;8361976;28;20189;-62
2023/03/14 05:00:28;;;;;;;9.83;4.17;;;5.90;99.90;;;;;;8367592;28;20253;-63
2023/03/14 05:04:32;;;;;;;25.53;11.73;;;5.80;99.90;;;;;;8362219;28;20205;-63
2023/03/14 05:08:33;;;;;;;23.70;11.60;;;5.80;99.90;;;;;;8365666;28;20502;-63
2023/03/14 05:12:34;;;;;;;9.60;5.10;;;5.80;99.90;;;;;;8368841;28;20214;-62
2023/03/14 05:16:35;;;;;;;7.30;3.27;;;5.70;99.90;;;;;;8364028;28;20193;-63
2023/03/14 05:20:36;;;;;;;3.43;2.43;;;5.60;99.90;;;;;;8361256;28;20190;-62
2023/03/14 05:24:36;;;;;;;3.80;1.73;;;5.60;99.90;;;;;;8362445;28;20227;-63
2023/03/14 05:28:37;;;;;;;3.83;1.93;;;5.50;99.90;;;;;;8362408;28;20199;-68
2023/03/14 05:32:38;;;;;;;1.90;1.70;;;5.50;99.90;;;;;;8366657;28;20221;-67
2023/03/14 05:36:39;;;;;;;1.87;1.50;;;5.80;99.90;;;;;;8364172;28;20265;-68
2023/03/14 05:40:39;;;;;;;3.80;2.40;;;6.10;99.90;;;;;;8362898;28;20204;-68
2023/03/14 05:44:40;;;;;;;4.93;2.00;;;6.50;99.90;;;;;;8367679;28;20201;-68
2023/03/14 05:48:41;;;;;;;2.33;1.90;;;6.90;99.90;;;;;;8363131;28;20194;-68
2023/03/14 05:52:42;;;;;;;3.70;2.00;;;7.30;99.90;;;;;;8364871;28;20275;-68
2023/03/14 05:56:43;;;;;;;1.93;1.70;;;7.50;99.90;;;;;;8361432;28;20193;-68
2023/03/14 06:00:43;;;;;;;2.23;1.80;;;7.60;99.90;;;;;;8363489;28;20197;-68
2023/03/14 06:04:44;;;;;;;2.67;1.87;;;7.60;99.90;;;;;;8368053;28;20201;-68
2023/03/14 06:08:45;;;;;;;2.20;1.60;;;7.70;99.90;;;;;;8366259;28;20193;-68
2023/03/14 06:12:46;;;;;;;1.77;1.53;;;7.80;99.90;;;;;;8361668;28;20233;-69
2023/03/14 06:16:48;;;;;;;2.20;1.63;;;7.90;99.90;;;;;;8360277;28;20221;-68
2023/03/14 06:20:52;;;;;;;2.60;2.03;;;7.90;99.90;;;;;;8367654;28;20200;-68
2023/03/14 06:24:53;;;;;;;3.27;2.30;;;8.10;99.90;;;;;;8380681;28;20245;-69
2023/03/14 06:28:54;;;;;;;6.13;3.83;;;8.20;99.90;;;;;;8362895;28;20205;-69
2023/03/14 06:32:57;;;;;;;7.83;4.47;;;8.40;99.90;;;;;;8365018;28;20331;-69
2023/03/14 06:36:58;;;;;;;3.93;2.30;;;8.80;99.90;;;;;;8368498;28;20564;-70
2023/03/14 06:41:06;;;;;;;2.83;2.40;;;9.30;99.90;;;;;;8362525;28;20198;-70
2023/03/14 06:45:08;;;;;;;5.67;3.20;;;9.80;99.90;;;;;;8365791;28;20204;-69
2023/03/14 06:49:09;;;;;;;10.53;5.83;;;10.20;99.90;;;;;;8363706;28;20204;-70
2023/03/14 06:53:10;;;;;;;6.10;3.93;;;10.40;99.90;;;;;;8362167;28;20216;-70
2023/03/14 06:57:10;;;;;;;5.37;3.07;;;10.60;99.90;;;;;;8361596;28;20284;-70
2023/03/14 07:01:23;;;;;;;3.83;2.40;;;10.60;99.90;;;;;;8362596;28;20189;-70
2023/03/14 07:05:24;;;;;;;2.93;2.10;;;10.60;99.90;;;;;;8366072;28;20292;-69
2023/03/14 07:09:25;;;;;;;2.17;1.60;;;10.50;99.90;;;;;;8359656;28;20193;-70
2023/03/14 07:13:25;;;;;;;3.77;1.83;;;10.40;99.90;;;;;;8360523;28;20235;-70
2023/03/14 07:17:27;;;;;;;2.00;1.60;;;10.50;99.90;;;;;;8363174;28;20189;-70
2023/03/14 07:21:28;;;;;;;6.73;2.80;;;10.60;99.90;;;;;;8376521;28;20584;-70
2023/03/14 07:25:29;;;;;;;3.73;1.70;;;10.80;99.90;;;;;;8358470;28;20198;-70
2023/03/14 07:29:30;;;;;;;3.87;1.60;;;10.90;99.90;;;;;;8360893;28;20205;-70
2023/03/14 07:33:31;;;;;;;4.70;2.20;;;11.10;99.90;;;;;;8360149;28;20216;-70
2023/03/14 07:37:32;;;;;;;3.40;2.00;;;11.20;99.90;;;;;;8359573;28;20205;-70
2023/03/14 07:41:33;;;;;;;3.33;1.80;;;11.40;1.00;;;;;;8360729;28;20204;-70
2023/03/14 07:45:34;;;;;;;4.60;2.50;;;11.50;1.00;;;;;;8358982;28;20284;-71
2023/03/14 07:49:35;;;;;;;3.80;1.90;;;11.70;99.90;;;;;;8360359;28;20200;-70
2023/03/14 07:53:35;;;;;;;2.63;1.93;;;11.70;99.90;;;;;;8364744;28;20209;-70
2023/03/14 07:57:36;;;;;;;4.37;2.00;;;11.70;99.90;;;;;;8367180;28;20194;-70
2023/03/14 08:01:37;;;;;;;1.90;1.50;;;11.70;99.90;;;;;;8365832;28;20185;-70
2023/03/14 08:05:38;;;;;;;3.23;1.83;;;11.60;99.90;;;;;;8363936;28;20304;-69
2023/03/14 08:09:39;;;;;;;2.73;1.80;;;11.60;99.90;;;;;;8370622;28;20181;-69
2023/03/14 08:13:40;;;;;;;2.60;1.90;;;11.60;99.90;;;;;;8367369;28;20219;-70
2023/03/14 08:17:40;;;;;;;2.47;1.87;;;11.60;99.90;;;;;;8367985;28;20182;-70
2023/03/14 08:21:41;;;;;;;3.60;1.93;;;11.60;99.90;;;;;;8363046;28;20185;-70
2023/03/14 08:25:43;;;;;;;3.80;1.70;;;11.60;99.90;;;;;;8362724;28;20957;-69
2023/03/14 08:29:44;;;;;;;2.50;1.57;;;11.60;99.90;;;;;;8367132;28;20231;-70
2023/03/14 08:33:44;;;;;;;1.97;1.30;;;11.60;99.90;;;;;;8365218;28;20216;-70
2023/03/14 08:37:46;;;;;;;2.50;1.40;;;11.60;99.90;;;;;;8368108;28;20259;-69
2023/03/14 08:41:49;;;;;;;3.37;1.40;;;11.70;99.90;;;;;;8364052;28;20193;-71
2023/03/14 08:45:49;;;;;;;5.13;1.17;;;12.00;99.90;;;;;;8360032;28;20209;-70
2023/03/14 08:49:50;;;;;;;2.63;1.43;;;12.40;99.90;;;;;;8364244;28;20193;-70
2023/03/14 08:53:51;;;;;;;1.67;1.00;;;12.50;99.90;;;;;;8361958;28;20200;-70
2023/03/14 08:57:52;;;;;;;2.10;1.37;;;12.70;99.90;;;;;;8362722;28;20190;-71
2023/03/14 09:01:54;;;;;;;3.03;1.43;;;12.90;99.90;;;;;;8361933;28;20296;-69
2023/03/14 09:05:55;;;;;;;1.60;1.03;;;13.10;99.90;;;;;;8361418;28;20197;-70
2023/03/14 09:09:56;;;;;;;2.33;1.40;;;13.20;92.30;;;;;;8360352;28;20185;-69
2023/03/14 09:13:56;;;;;;;1.80;1.07;;;13.40;73.80;;;;;;8367325;28;20217;-70
2023/03/14 09:17:58;;;;;;;2.57;1.10;;;13.60;49.30;;;;;;8364111;28;20307;-70
2023/03/14 09:21:59;;;;;;;1.77;0.60;;;13.80;34.20;;;;;;8366022;28;20182;-71
2023/03/14 09:26:00;;;;;;;3.40;0.90;;;13.80;1.80;;;;;;8374783;28;20265;-70
2023/03/14 09:30:01;;;;;;;2.00;0.90;;;13.80;1.40;;;;;;8377478;28;20197;-70
2023/03/14 09:34:02;;;;;;;2.17;0.80;;;13.90;4.00;;;;;;8380564;28;20213;-70
2023/03/14 09:38:03;;;;;;;2.53;0.87;;;14.30;1.00;;;;;;8360238;28;20456;-70
2023/03/14 09:42:07;;;;;;;1.60;0.90;;;14.70;1.00;;;;;;8321381;28;1232532;-71
2023/03/14 09:46:11;;;;;;;2.83;0.80;;;15.00;1.00;;;;;;8363970;28;20189;-70
2023/03/14 09:50:15;;;;;;;4.10;0.90;;;15.20;1.00;;;;;;8364002;28;20193;-71
2023/03/14 09:54:43;;;;;;;2.60;0.70;;;15.30;1.00;;;;;;8363265;28;20213;-71
2023/03/14 09:58:50;;;;;;;3.23;0.60;;;15.50;1.00;;;;;;8365732;28;20197;-70
2023/03/14 10:03:02;;;;;;;2.67;1.10;;;15.70;1.00;;;;;;8364494;28;20197;-70
2023/03/14 10:07:02;;;;;;;2.83;0.90;;;15.50;1.00;;;;;;8362728;28;20194;-71
2023/03/14 10:11:03;;;;;;;3.23;1.10;;;15.40;1.00;;;;;;8380411;28;20727;-71
2023/03/14 10:15:09;;;;;;;2.17;0.80;;;15.40;1.00;;;;;;8376445;28;20299;-70
2023/03/14 10:19:15;;;;;;;2.67;0.73;;;15.50;1.00;;;;;;8378538;28;20192;-70
2023/03/14 10:23:15;;;;;;;1.83;0.80;;;15.60;1.00;;;;;;8358320;28;20190;-71
2023/03/14 10:27:39;;;;;;;2.20;1.10;;;15.60;1.00;;;;;;8361969;28;20181;-69
2023/03/14 10:32:09;;;;;;;1.57;0.90;;;15.70;1.00;;;;;;8364192;28;20220;-70
2023/03/14 10:36:23;;;;;;;2.37;0.80;;;15.90;1.00;;;;;;8372491;28;20286;-70
2023/03/14 10:40:38;;;;;;;1.50;0.80;;;16.10;1.00;;;;;;8362735;28;20181;-70
2023/03/14 10:44:41;;;;;;;3.43;0.73;;;16.10;1.00;;;;;;8357645;28;20194;-73
2023/03/14 10:48:41;;;;;;;3.27;0.80;;;16.10;1.00;;;;;;8365002;28;20486;-70
2023/03/14 10:52:50;;;;;;;2.00;0.50;;;15.80;1.00;;;;;;8363714;28;20205;-69
2023/03/14 10:57:00;;;;;;;1.63;0.70;;;15.70;1.00;;;;;;8362773;28;20242;-69
2023/03/14 11:01:04;;;;;;;3.13;0.60;;;15.80;1.00;;;;;;8362462;28;20216;-70
2023/03/14 11:05:23;;;;;;;1.30;0.60;;;15.80;1.00;;;;;;8364145;28;20547;-70
2023/03/14 11:09:29;;;;;;;1.03;0.60;;;16.00;1.00;;;;;;8380074;28;20195;-70
2023/03/14 11:13:32;;;;;;;1.97;0.70;;;16.30;1.00;;;;;;8357123;28;20205;-70
2023/03/14 11:18:04;;;;;;;3.27;0.60;;;16.40;1.00;;;;;;8362189;28;20186;-69
2023/03/14 11:22:27;;;;;;;2.67;0.93;;;16.30;1.00;;;;;;8360681;28;20177;-70
2023/03/14 11:26:39;;;;;;;1.57;0.83;;;16.20;1.00;;;;;;8358092;28;20235;-69
2023/03/14 11:30:54;;;;;;;2.77;0.80;;;16.60;1.00;;;;;;8359136;28;20173;-70
2023/03/14 11:34:59;;;;;;;1.90;0.70;;;16.70;1.00;;;;;;8366907;28;20301;-69
2023/03/14 11:39:00;;;;;;;0.80;0.40;;;16.60;1.00;;;;;;8362605;28;20296;-68
2023/03/14 11:43:19;;;;;;;2.67;0.60;;;16.60;1.00;;;;;;8364090;28;20205;-69
2023/03/14 11:47:34;;;;;;;2.50;0.53;;;16.30;1.00;;;;;;8359047;28;20339;-69
2023/03/14 11:51:46;;;;;;;1.73;0.57;;;16.30;1.00;;;;;;8359498;28;20182;-68
2023/03/14 11:55:48;;;;;;;1.20;0.57;;;16.20;1.00;;;;;;8358297;28;20263;-69
2023/03/14 12:00:25;;;;;;;1.20;0.40;;;16.20;1.00;;;;;;8360404;28;20178;-70
2023/03/14 12:04:47;;;;;;;1.20;0.60;;;16.30;1.00;;;;;;8360187;28;20205;-69
2023/03/14 12:08:58;;;;;;;1.53;0.50;;;16.30;1.00;;;;;;8376220;28;20177;-69
2023/03/14 12:12:59;;;;;;;3.13;0.63;;;16.20;1.00;;;;;;8361207;28;20277;-69
2023/03/14 12:17:18;;;;;;;2.13;0.70;;;15.90;1.00;;;;;;8359566;28;20181;-70
2023/03/14 12:21:19;;;;;;;3.03;0.50;;;16.00;1.00;;;;;;8361803;28;20186;-71
2023/03/14 12:25:26;;;;;;;0.90;0.40;;;15.80;1.00;;;;;;8360171;28;20224;-70
2023/03/14 12:29:28;;;;;;;1.73;0.77;;;15.70;1.00;;;;;;8357490;28;20217;-71
2023/03/14 12:33:32;;;;;;;1.23;0.40;;;15.60;1.00;;;;;;8357779;28;20208;-71
2023/03/14 12:37:41;;;;;;;1.90;0.40;;;15.30;1.00;;;;;;8360086;28;20205;-69
2023/03/14 12:41:46;;;;;;;1.20;0.67;;;15.20;1.00;;;;;;8364450;28;20174;-69
2023/03/14 12:46:07;;;;;;;1.83;0.47;;;15.20;1.00;;;;;;8363440;28;20510;-69
2023/03/14 12:50:15;;;;;;;1.80;0.50;;;15.00;1.00;;;;;;8363859;28;20186;-69
2023/03/14 12:54:39;;;;;;;2.00;0.80;;;14.80;1.00;;;;;;8383481;28;20249;-71
2023/03/14 12:59:17;;;;;;;0.93;0.60;;;14.80;1.00;;;;;;8365300;28;20169;-69
2023/03/14 13:03:24;;;;;;;1.57;0.60;;;14.90;1.00;;;;;;8369810;28;20234;-69
2023/03/14 13:07:39;;;;;;;1.77;0.53;;;14.90;1.00;;;;;;8362583;28;20189;-70
2023/03/14 13:11:42;;;;;;;3.03;0.47;;;15.10;1.00;;;;;;8365496;28;20268;-69
2023/03/14 13:15:45;;;;;;;3.93;0.67;;;15.40;1.00;;;;;;8361552;28;20300;-69
2023/03/14 13:19:53;;;;;;;2.27;0.70;;;15.40;1.00;;;;;;8368599;28;20185;-71
2023/03/14 13:24:00;;;;;;;1.70;0.43;;;15.50;1.00;;;;;;8365529;28;20227;-70
2023/03/14 13:28:02;;;;;;;1.60;0.60;;;15.50;1.00;;;;;;8363428;28;20633;-69
2023/03/14 13:32:19;;;;;;;1.73;0.40;;;15.50;1.00;;;;;;8363624;28;20213;-71
2023/03/14 13:36:22;;;;;;;1.63;0.60;;;15.50;1.00;;;;;;8367441;28;20215;-69
2023/03/14 13:40:33;;;;;;;1.40;0.63;;;15.30;1.00;;;;;;8381891;28;20273;-69
2023/03/14 13:44:38;;;;;;;1.57;0.50;;;15.00;1.00;;;;;;8363427;28;20197;-70
2023/03/14 13:48:48;;;;;;;1.17;0.60;;;14.90;1.00;;;;;;8366847;28;20186;-73
2023/03/14 13:52:56;;;;;;;1.10;0.60;;;14.80;1.00;;;;;;8367187;28;20177;-70
2023/03/14 13:57:02;;;;;;;1.37;0.67;;;14.60;1.00;;;;;;8364403;28;20187;-69
2023/03/14 14:01:11;;;;;;;1.33;0.77;;;14.40;1.00;;;;;;8364439;28;20189;-70
2023/03/14 14:05:12;;;;;;;1.63;0.60;;;14.40;1.00;;;;;;8370082;28;20190;-69
2023/03/14 14:09:53;;;;;;;2.13;0.80;;;14.30;1.00;;;;;;8360999;28;20261;-71
2023/03/14 14:13:54;;;;;;;2.70;0.80;;;14.40;1.00;;;;;;8362849;28;20292;-69
2023/03/14 14:18:03;;;;;;;2.77;0.90;;;14.60;1.00;;;;;;8346359;28;20182;-70
2023/03/14 14:22:04;;;;;;;2.33;0.90;;;14.90;1.00;;;;;;8361954;28;20216;-70
2023/03/14 14:26:06;;;;;;;5.43;0.80;;;15.10;1.00;;;;;;8365818;28;20186;-70
2023/03/14 14:30:33;;;;;;;1.33;0.80;;;15.10;1.00;;;;;;8361593;28;20261;-71
2023/03/14 14:34:56;;;;;;;2.00;0.70;;;15.20;1.00;;;;;;8361699;28;20201;-70
2023/03/14 14:39:04;;;;;;;2.63;0.57;;;15.40;1.00;;;;;;8360334;28;20181;-71
2023/03/14 14:43:05;;;;;;;1.03;0.53;;;15.20;1.00;;;;;;8361548;28;20204;-71
2023/03/14 14:47:06;;;;;;;3.70;0.77;;;14.90;1.00;;;;;;8358403;28;20583;-70
2023/03/14 14:51:07;;;;;;;1.30;0.57;;;14.70;1.00;;;;;;8365690;28;20275;-69
2023/03/14 14:55:17;;;;;;;4.03;0.70;;;14.50;1.00;;;;;;8361936;28;20225;-71
2023/03/14 14:59:25;;;;;;;2.27;0.80;;;14.40;1.00;;;;;;8360914;28;20186;-70
2023/03/14 15:03:28;;;;;;;1.63;0.93;;;14.20;1.00;;;;;;8362607;28;20189;-70
2023/03/14 15:07:29;;;;;;;1.83;0.90;;;14.10;1.00;;;;;;8363691;28;20263;-71
2023/03/14 15:11:30;;;;;;;1.70;0.80;;;14.20;1.00;;;;;;8364246;28;20212;-70
2023/03/14 15:15:31;;;;;;;1.77;0.70;;;14.30;1.00;;;;;;8361599;28;20220;-71
2023/03/14 15:19:32;;;;;;;1.93;0.90;;;14.40;1.00;;;;;;8363104;28;20186;-70
2023/03/14 15:23:33;;;;;;;1.50;0.70;;;14.50;1.00;;;;;;8359418;28;20193;-70
2023/03/14 15:27:34;;;;;;;2.20;0.83;;;14.40;1.00;;;;;;8367232;28;20322;-71
2023/03/14 15:31:35;;;;;;;1.93;1.00;;;14.50;1.00;;;;;;8358834;28;20216;-69
2023/03/14 15:35:37;;;;;;;1.47;0.50;;;14.40;1.00;;;;;;8358940;28;20209;-69
2023/03/14 15:39:38;;;;;;;2.30;1.10;;;14.30;1.00;;;;;;8360977;28;20177;-70
2023/03/14 15:43:39;;;;;;;3.77;0.90;;;14.20;1.00;;;;;;8360756;28;20206;-70
2023/03/14 15:47:40;;;;;;;2.00;1.03;;;14.20;1.00;;;;;;8360386;28;20193;-71
2023/03/14 15:51:41;;;;;;;2.10;1.23;;;14.30;1.00;;;;;;8358750;28;20188;-69
2023/03/14 15:55:42;;;;;;;2.27;0.83;;;14.40;1.00;;;;;;8356995;28;20205;-70
2023/03/14 15:59:42;;;;;;;1.37;0.60;;;14.10;1.00;;;;;;8358668;28;20188;-69
2023/03/14 16:03:48;;;;;;;1.53;0.70;;;13.80;1.00;;;;;;8361405;28;20286;-70
2023/03/14 16:07:49;;;;;;;2.17;1.13;;;13.50;1.00;;;;;;8357814;28;20189;-70
2023/03/14 16:11:49;;;;;;;2.33;1.23;;;13.30;1.00;;;;;;8361115;28;20181;-70
2023/03/14 16:16:01;;;;;;;1.70;0.67;;;13.20;1.00;;;;;;8364159;28;20212;-70
2023/03/14 16:20:03;;;;;;;2.30;0.73;;;13.20;1.00;;;;;;8370444;28;20188;-68
2023/03/14 16:24:05;;;;;;;1.50;0.90;;;13.10;1.00;;;;;;8366476;28;20189;-69
2023/03/14 16:28:06;;;;;;;1.13;0.60;;;13.10;1.00;;;;;;8369166;28;20467;-69
2023/03/14 16:32:07;;;;;;;1.40;0.73;;;13.10;1.00;;;;;;8366501;28;20200;-69
2023/03/14 16:36:10;;;;;;;2.40;1.30;;;13.00;1.00;;;;;;8368267;28;20214;-68
2023/03/14 16:40:12;;;;;;;2.00;1.13;;;12.90;1.00;;;;;;8364317;28;20264;-70
2023/03/14 16:44:12;;;;;;;3.17;1.40;;;12.80;1.00;;;;;;8364879;28;20322;-69
2023/03/14 16:48:13;;;;;;;1.47;0.80;;;12.70;1.00;;;;;;8364449;28;20193;-70
2023/03/14 16:52:14;;;;;;;3.07;0.90;;;12.60;1.00;;;;;;8383442;28;20189;-70
2023/03/14 16:56:15;;;;;;;1.80;0.97;;;12.50;1.00;;;;;;8363659;28;20210;-70
2023/03/14 17:00:17;;;;;;;1.93;1.00;;;12.40;1.00;;;;;;8366900;28;20264;-70
2023/03/14 17:04:17;;;;;;;2.60;1.27;;;12.20;1.00;;;;;;8363421;28;20263;-70
2023/03/14 17:08:19;;;;;;;1.73;1.10;;;12.00;1.00;;;;;;8368459;28;20271;-70
2023/03/14 17:12:20;;;;;;;1.97;1.10;;;12.00;1.00;;;;;;8379791;28;20192;-70
2023/03/14 17:16:21;;;;;;;1.40;1.00;;;11.90;1.00;;;;;;8367177;28;20215;-70
2023/03/14 17:20:22;;;;;;;3.37;1.00;;;11.80;2.90;;;;;;8363566;28;20192;-70
2023/03/14 17:24:23;;;;;;;2.30;1.00;;;11.70;11.80;;;;;;8362155;28;20193;-65
2023/03/14 17:28:26;;;;;;;1.93;1.00;;;11.60;19.30;;;;;;8364836;28;20288;-65
2023/03/14 17:32:28;;;;;;;3.60;1.00;;;11.50;19.70;;;;;;8368594;28;20182;-64
2023/03/14 17:36:31;;;;;;;1.83;1.03;;;11.50;23.00;;;;;;8366239;28;20214;-65
2023/03/14 17:40:32;;;;;;;3.33;1.50;;;11.50;22.80;;;;;;8372612;28;20185;-64
2023/03/14 17:44:33;;;;;;;2.57;1.30;;;11.50;25.10;;;;;;8364979;28;20280;-66
2023/03/14 17:48:34;;;;;;;3.13;1.20;;;11.50;29.50;;;;;;8364973;28;20181;-64
2023/03/14 17:52:35;;;;;;;1.40;1.00;;;11.40;35.70;;;;;;8362691;28;20554;-65
2023/03/14 17:56:36;;;;;;;1.67;0.93;;;11.40;41.50;;;;;;8368010;28;20232;-66
2023/03/14 18:00:37;;;;;;;3.33;1.30;;;11.40;45.40;;;;;;8363414;28;20176;-65
2023/03/14 18:04:38;;;;;;;4.13;1.47;;;11.30;48.70;;;;;;8365403;28;20188;-66
2023/03/14 18:08:43;;;;;;;4.27;2.30;;;11.30;52.70;;;;;;8364224;28;20246;-65
2023/03/14 18:12:44;;;;;;;4.43;2.27;;;11.20;58.30;;;;;;8364092;28;20178;-65
2023/03/14 18:16:47;;;;;;;3.83;2.13;;;11.20;61.20;;;;;;8360432;28;20177;-66
2023/03/14 18:20:52;;;;;;;4.40;2.20;;;11.20;71.10;;;;;;8364308;28;20212;-65
2023/03/14 18:24:53;;;;;;;5.23;2.43;;;11.20;99.30;;;;;;8361815;28;20190;-64
2023/03/14 18:28:54;;;;;;;3.50;1.90;;;11.10;99.90;;;;;;8364127;28;20185;-65
2023/03/14 18:32:55;;;;;;;2.87;1.57;;;11.10;99.90;;;;;;8357376;28;20177;-64
2023/03/14 18:36:56;;;;;;;2.43;0.70;;;11.10;99.90;;;;;;8362129;28;20205;-64
2023/03/14 18:41:03;;;;;;;0.70;0.40;;;10.20;99.90;;;;;;8365107;28;20190;-65
2023/03/14 18:45:05;;;;;;;2.93;0.80;;;8.10;98.10;;;;;;8363388;28;20239;-65
2023/03/14 18:49:06;;;;;;;2.20;0.83;;;7.40;99.90;;;;;;8364434;28;20241;-66
2023/03/14 18:53:07;;;;;;;0.37;0.30;;;7.00;1.00;;;;;;8364779;28;20258;-65
2023/03/14 18:57:08;;;;;;;0.40;0.30;;;6.80;1.00;;;;;;8365478;28;20437;-67
2023/03/14 19:01:11;;;;;;;1.17;0.40;;;6.60;10.00;;;;;;8361441;28;20553;-64
2023/03/14 19:05:12;;;;;;;0.93;0.40;;;6.30;99.90;;;;;;8363587;28;20181;-68
2023/03/14 19:09:14;;;;;;;3.93;0.70;;;6.00;1.00;;;;;;8363064;28;20186;-64
2023/03/14 19:13:16;;;;;;;0.67;0.60;;;5.80;1.00;;;;;;8360454;28;20225;-64
2023/03/14 19:17:17;;;;;;;1.17;0.50;;;5.40;99.90;;;;;;8362231;28;20273;-64
2023/03/14 19:21:31;;;;;;;0.83;0.50;;;4.70;1.00;;;;;;8366542;28;20174;-61
2023/03/14 19:25:33;;;;;;;2.80;0.90;;;4.30;99.90;;;;;;8359951;28;20259;-62
2023/03/14 19:29:40;;;;;;;0.97;0.57;;;4.00;1.00;;;;;;8362581;28;20189;-63
2023/03/14 19:33:42;;;;;;;0.60;0.60;;;3.70;99.90;;;;;;8359500;28;20209;-62
2023/03/14 19:37:47;;;;;;;0.87;0.80;;;3.40;1.00;;;;;;8360266;28;20310;-63
2023/03/14 19:41:48;;;;;;;1.60;0.60;;;3.20;99.90;;;;;;8362872;28;21155;-61
2023/03/14 19:45:49;;;;;;;1.27;0.87;;;2.80;99.90;;;;;;8360362;28;20284;-63
2023/03/14 19:49:50;;;;;;;2.93;1.00;;;2.70;99.90;;;;;;8368501;28;20194;-61
2023/03/14 19:53:52;;;;;;;1.37;1.10;;;2.50;99.90;;;;;;8365130;28;20200;-63
2023/03/14 19:57:53;;;;;;;8.40;2.50;;;2.40;1.00;;;;;;8366994;28;20194;-63
2023/03/14 20:01:56;;;;;;;1.93;0.80;;;2.40;94.70;;;;;;8365727;28;20244;-61
2023/03/14 20:05:57;;;;;;;8.67;1.80;;;2.30;99.90;;;;;;8366681;28;20185;-62
2023/03/14 20:09:58;;;;;;;1.17;0.60;;;2.20;1.00;;;;;;8371569;28;20181;-63
2023/03/14 20:13:59;;;;;;;8.00;2.20;;;2.10;99.90;;;;;;8365548;28;20217;-61
2023/03/14 20:18:00;;;;;;;3.17;1.30;;;2.00;99.90;;;;;;8368926;28;20184;-61
2023/03/14 20:22:02;;;;;;;2.40;1.33;;;2.00;99.90;;;;;;8366558;28;20216;-61
2023/03/14 20:26:03;;;;;;;2.93;1.60;;;2.00;39.20;;;;;;8366932;28;20192;-62
2023/03/14 20:30:11;;;;;;;5.77;1.87;;;1.90;95.30;;;;;;8369670;28;20343;-61
2023/03/14 20:34:12;;;;;;;3.73;1.43;;;1.90;1.00;;;;;;8365110;28;20292;-61
2023/03/14 20:38:13;;;;;;;5.30;1.63;;;1.90;1.00;;;;;;8366482;28;20610;-61
2023/03/14 20:42:14;;;;;;;4.57;1.33;;;1.80;1.00;;;;;;8367937;28;20197;-62
2023/03/14 20:46:16;;;;;;;2.77;1.80;;;1.60;1.00;;;;;;8366903;28;20185;-67
2023/03/14 20:50:17;;;;;;;6.03;1.30;;;1.50;99.90;;;;;;8368096;28;20280;-62
2023/03/14 20:54:18;;;;;;;6.17;1.27;;;1.50;99.90;;;;;;8365991;28;20212;-62
2023/03/14 20:58:19;;;;;;;5.20;1.63;;;1.50;99.90;;;;;;8365089;28;20166;-62
2023/03/14 21:02:20;;;;;;;5.60;1.77;;;1.50;99.90;;;;;;8364138;28;20269;-62
2023/03/14 21:06:24;;;;;;;3.53;1.43;;;1.50;99.90;;;;;;8360879;28;20184;-62
2023/03/14 21:10:25;;;;;;;7.03;1.70;;;1.50;99.90;;;;;;8367133;28;20189;-63
2023/03/14 21:14:26;;;;;;;6.50;1.60;;;1.60;99.90;;;;;;8363591;28;20201;-62
2023/03/14 21:18:27;;;;;;;2.27;1.50;;;1.60;99.90;;;;;;8363758;28;20170;-64
2023/03/14 21:22:28;;;;;;;4.77;2.23;;;1.60;99.90;;;;;;8363309;28;20177;-66